createdAt,value
2019-01-23T00:03:41.309Z,93855.00
2019-01-23T00:06:23.190Z,93851.00
2019-01-23T00:12:21.139Z,93854.00
2019-01-23T00:15:10.748Z,93846.00
2019-01-23T00:17:52.537Z,93848.00
2019-01-23T00:20:42.071Z,93842.00
2019-01-23T00:23:24.448Z,93847.00
2019-01-23T00:26:14.008Z,93841.00
2019-01-23T00:29:03.527Z,93836.00
2019-01-23T00:31:45.594Z,93832.00
2019-01-23T00:37:56.731Z,93826.00
2019-01-23T00:40:39.441Z,93828.00
2019-01-23T00:43:29.068Z,93828.00
2019-01-23T00:46:11.167Z,93816.00
2019-01-23T00:49:03.056Z,93832.00
2019-01-23T00:51:45.835Z,93823.00
2019-01-23T00:54:35.489Z,93818.00
2019-01-23T00:57:17.831Z,93827.00
2019-01-23T01:03:36.737Z,93819.00
2019-01-23T01:06:26.301Z,93822.00
2019-01-23T01:09:09.659Z,93817.00
2019-01-23T01:11:59.497Z,93808.00
2019-01-23T01:14:41.801Z,93812.00
2019-01-23T01:17:31.399Z,93803.00
2019-01-23T01:20:13.905Z,93808.00
2019-01-23T01:23:03.523Z,93805.00
2019-01-23T01:28:47.878Z,93792.00
2019-01-23T01:34:32.184Z,93792.00
2019-01-23T01:37:14.548Z,93787.00
2019-01-23T01:43:13.018Z,93776.00
2019-01-23T01:46:02.573Z,93776.00
2019-01-23T01:51:52.534Z,93757.00
2019-01-23T01:54:34.392Z,93756.00
2019-01-23T01:58:03.335Z,93750.00
2019-01-23T02:00:52.848Z,93748.00
2019-01-23T02:03:42.385Z,93745.00
2019-01-23T02:06:24.877Z,93740.00
2019-01-23T02:09:14.426Z,93739.00
2019-01-23T02:11:56.865Z,93729.00
2019-01-23T02:14:46.537Z,93730.00
2019-01-23T02:17:31.096Z,93729.00
2019-01-23T02:23:35.951Z,93709.00
2019-01-23T02:26:25.507Z,93717.00
2019-01-23T02:29:09.620Z,93702.00
2019-01-23T02:31:52.127Z,93693.00
2019-01-23T02:34:38.409Z,93681.00
2019-01-23T02:40:23.640Z,93684.00
2019-01-23T02:46:13.731Z,93671.00
2019-01-23T02:48:55.454Z,93673.00
2019-01-23T02:51:45.033Z,93667.00
2019-01-23T02:54:27.273Z,93656.00
2019-01-23T03:00:24.683Z,93674.00
2019-01-23T03:03:14.256Z,93663.00
2019-01-23T03:05:56.781Z,93669.00
2019-01-23T03:08:46.258Z,93651.00
2019-01-23T03:11:28.750Z,93651.00
2019-01-23T03:14:18.432Z,93646.00
2019-01-23T03:17:00.302Z,93643.00
2019-01-23T03:22:44.637Z,93636.00
2019-01-23T03:25:39.522Z,93623.00
2019-01-23T03:28:23.399Z,93632.00
2019-01-23T03:31:05.875Z,93618.00
2019-01-23T03:33:55.523Z,93614.00
2019-01-23T03:36:37.965Z,93618.00
2019-01-23T03:42:33.837Z,93607.00
2019-01-23T03:48:24.649Z,93617.00
2019-01-23T03:51:07.788Z,93613.00
2019-01-23T03:53:59.396Z,93615.00
2019-01-23T03:56:41.474Z,93611.00
2019-01-23T03:59:32.328Z,93619.00
2019-01-23T04:02:15.960Z,93604.00
2019-01-23T04:08:14.609Z,93604.00
2019-01-23T04:11:04.152Z,93618.00
2019-01-23T04:13:54.027Z,93613.00
2019-01-23T04:16:35.769Z,93606.00
2019-01-23T04:19:25.298Z,93600.00
2019-01-23T04:22:07.395Z,93599.00
2019-01-23T04:24:56.915Z,93602.00
2019-01-23T04:27:39.186Z,93587.00
2019-01-23T04:30:47.686Z,93597.00
2019-01-23T04:33:37.386Z,93595.00
2019-01-23T04:36:19.824Z,93582.00
2019-01-23T04:39:09.812Z,93582.00
2019-01-23T04:41:52.464Z,93588.00
2019-01-23T04:44:42.000Z,93582.00
2019-01-23T04:47:23.997Z,93574.00
2019-01-23T04:50:53.454Z,93562.00
2019-01-23T04:53:38.807Z,93556.00
2019-01-23T04:56:47.413Z,93563.00
2019-01-23T04:59:29.239Z,93562.00
2019-01-23T05:05:11.299Z,93560.00
2019-01-23T05:14:17.908Z,93551.00
2019-01-23T05:17:00.394Z,93553.00
2019-01-23T05:19:49.983Z,93541.00
2019-01-23T05:22:32.674Z,93545.00
2019-01-23T05:28:10.192Z,93543.00
2019-01-23T05:30:59.796Z,93538.00
2019-01-23T05:33:41.694Z,93529.00
2019-01-23T05:36:31.216Z,93542.00
2019-01-23T05:39:13.468Z,93526.00
2019-01-23T05:42:21.896Z,93528.00
2019-01-23T05:45:04.094Z,93526.00
2019-01-23T05:51:02.630Z,93523.00
2019-01-23T05:53:52.193Z,93519.00
2019-01-23T05:56:34.402Z,93518.00
2019-01-23T05:59:23.964Z,93519.00
2019-01-23T06:02:06.577Z,93522.00
2019-01-23T06:08:06.823Z,93515.00
2019-01-23T06:10:56.477Z,93518.00
2019-01-23T06:13:38.353Z,93517.00
2019-01-23T06:16:27.909Z,93507.00
2019-01-23T06:19:10.248Z,93511.00
2019-01-23T06:22:12.297Z,93511.00
2019-01-23T06:24:44.147Z,93525.00
2019-01-23T06:30:35.126Z,93517.00
2019-01-23T06:33:24.702Z,93519.00
2019-01-23T06:36:07.085Z,93517.00
2019-01-23T06:38:56.684Z,93511.00
2019-01-23T06:41:39.198Z,93509.00
2019-01-23T06:47:21.487Z,93509.00
2019-01-23T06:50:14.012Z,93498.00
2019-01-23T06:53:03.550Z,93501.00
2019-01-23T06:55:53.114Z,93506.00
2019-01-23T06:58:42.800Z,93491.00
2019-01-23T07:04:18.778Z,93504.00
2019-01-23T07:16:27.121Z,93499.00
2019-01-23T07:19:16.655Z,93490.00
2019-01-23T07:21:58.981Z,93497.00
2019-01-23T07:27:55.184Z,93490.00
2019-01-23T07:33:45.857Z,93480.00
2019-01-23T07:36:28.614Z,93486.00
2019-01-23T07:42:12.050Z,93479.00
2019-01-23T07:48:03.877Z,93466.00
2019-01-23T07:51:32.813Z,93474.00
2019-01-23T07:54:15.428Z,93468.00
2019-01-23T07:57:04.945Z,93470.00
2019-01-23T07:59:47.674Z,93465.00
2019-01-23T08:05:44.008Z,93462.00
2019-01-23T08:08:33.652Z,93459.00
2019-01-23T08:11:42.049Z,93458.00
2019-01-23T08:14:24.357Z,93450.00
2019-01-23T08:20:02.785Z,93455.00
2019-01-23T08:22:52.462Z,93455.00
2019-01-23T08:25:35.084Z,93452.00
2019-01-23T08:31:25.320Z,93451.00
2019-01-23T08:34:07.887Z,93446.00
2019-01-23T08:36:57.400Z,93453.00
2019-01-23T08:39:40.971Z,93433.00
2019-01-23T08:42:30.523Z,93445.00
2019-01-23T08:45:13.207Z,93445.00
2019-01-23T08:48:02.755Z,93440.00
2019-01-23T08:56:54.547Z,93431.00
2019-01-23T08:59:37.188Z,93435.00
2019-01-23T09:02:26.711Z,93427.00
2019-01-23T09:05:09.611Z,93436.00
2019-01-23T09:07:59.150Z,93429.00
2019-01-23T09:10:40.877Z,93421.00
2019-01-23T09:13:30.444Z,93423.00
2019-01-23T09:16:13.452Z,93424.00
2019-01-23T09:19:02.980Z,93423.00
2019-01-23T09:21:45.506Z,93435.00
2019-01-23T09:24:35.044Z,93427.00
2019-01-23T09:27:18.492Z,93431.00
2019-01-23T09:30:00.478Z,93429.00
2019-01-23T09:33:12.313Z,93425.00
2019-01-23T09:36:39.929Z,93421.00
2019-01-23T09:39:42.207Z,93429.00
2019-01-23T09:49:48.590Z,93420.00
2019-01-23T09:55:53.716Z,93408.00
2019-01-23T09:58:35.683Z,93409.00
2019-01-23T10:01:25.198Z,93401.00
2019-01-23T10:04:10.133Z,93398.00
2019-01-23T10:06:59.653Z,93386.00
2019-01-23T10:09:41.641Z,93388.00
2019-01-23T10:12:31.302Z,93387.00
2019-01-23T10:15:14.838Z,93387.00
2019-01-23T10:18:04.433Z,93395.00
2019-01-23T10:20:53.997Z,93380.00
2019-01-23T10:23:43.555Z,93383.00
2019-01-23T10:26:26.609Z,93372.00
2019-01-23T10:29:16.195Z,93373.00
2019-01-23T10:31:58.518Z,93367.00
2019-01-23T10:34:41.134Z,93379.00
2019-01-23T10:37:30.716Z,93376.00
2019-01-23T10:40:14.409Z,93371.00
2019-01-23T10:46:11.718Z,93356.00
2019-01-23T10:49:01.404Z,93371.00
2019-01-23T10:51:43.730Z,93354.00
2019-01-23T10:57:41.079Z,93344.00
2019-01-23T11:03:26.867Z,93344.00
2019-01-23T11:06:08.958Z,93338.00
2019-01-23T11:08:58.483Z,93344.00
2019-01-23T11:11:43.469Z,93336.00
2019-01-23T11:14:33.021Z,93337.00
2019-01-23T11:17:15.653Z,93335.00
2019-01-23T11:20:25.718Z,93339.00
2019-01-23T11:23:08.383Z,93338.00
2019-01-23T11:25:57.898Z,93324.00
2019-01-23T11:28:39.704Z,93316.00
2019-01-23T11:31:48.286Z,93317.00
2019-01-23T11:34:30.697Z,93321.00
2019-01-23T11:37:20.246Z,93317.00
2019-01-23T11:40:02.954Z,93327.00
2019-01-23T11:42:52.491Z,93317.00
2019-01-23T11:45:34.245Z,93317.00
2019-01-23T11:48:23.893Z,93319.00
2019-01-23T11:51:06.496Z,93323.00
2019-01-23T11:56:48.676Z,93315.00
2019-01-23T12:02:53.409Z,93315.00
2019-01-23T12:05:35.692Z,93310.00
2019-01-23T12:08:25.212Z,93322.00
2019-01-23T12:11:07.558Z,93319.00
2019-01-23T12:13:57.069Z,93308.00
2019-01-23T12:16:39.082Z,93318.00
2019-01-23T12:22:36.893Z,93314.00
2019-01-23T12:25:26.445Z,93308.00
2019-01-23T12:28:29.150Z,93304.00
2019-01-23T12:30:59.852Z,93303.00
2019-01-23T12:33:49.488Z,93300.00
2019-01-23T12:36:31.981Z,93302.00
2019-01-23T12:39:21.563Z,93312.00
2019-01-23T12:42:04.124Z,93303.00
2019-01-23T12:44:53.985Z,93291.00
2019-01-23T12:47:35.779Z,93306.00
2019-01-23T12:53:54.128Z,93293.00
2019-01-23T12:56:43.663Z,93294.00
2019-01-23T12:59:33.206Z,93285.00
2019-01-23T13:02:14.877Z,93298.00
2019-01-23T13:05:05.161Z,93292.00
2019-01-23T13:07:47.924Z,93294.00
2019-01-23T13:13:37.522Z,93292.00
2019-01-23T13:16:19.244Z,93295.00
2019-01-23T13:19:08.742Z,93304.00
2019-01-23T13:21:50.861Z,93302.00
2019-01-23T13:24:59.332Z,93306.00
2019-01-23T13:27:41.651Z,93306.00
2019-01-23T13:30:31.202Z,93311.00
2019-01-23T13:33:20.771Z,93303.00
2019-01-23T13:36:02.466Z,93306.00
2019-01-23T13:38:52.048Z,93311.00
2019-01-23T13:41:34.500Z,93307.00
2019-01-23T13:44:24.022Z,93313.00
2019-01-23T13:47:06.625Z,93309.00
2019-01-23T13:49:56.177Z,93316.00
2019-01-23T13:52:37.997Z,93314.00
2019-01-23T13:58:41.583Z,93316.00
2019-01-23T14:01:26.901Z,93314.00
2019-01-23T14:04:09.566Z,93331.00
2019-01-23T14:10:08.599Z,93319.00
2019-01-23T14:15:46.905Z,93336.00
2019-01-23T14:18:37.103Z,93338.00
2019-01-23T14:21:19.813Z,93343.00
2019-01-23T14:27:19.366Z,93339.00
2019-01-23T14:33:45.190Z,93351.00
2019-01-23T14:36:27.350Z,93346.00
2019-01-23T14:39:16.900Z,93340.00
2019-01-23T14:41:59.340Z,93352.00
2019-01-23T14:44:48.892Z,93352.00
2019-01-23T14:47:31.396Z,93346.00
2019-01-23T14:51:00.359Z,93358.00
2019-01-23T14:53:42.414Z,93351.00
2019-01-23T14:56:31.972Z,93348.00
2019-01-23T14:59:14.055Z,93348.00
2019-01-23T15:05:10.731Z,93340.00
2019-01-23T15:08:00.253Z,93339.00
2019-01-23T15:10:49.826Z,93347.00
2019-01-23T15:13:33.011Z,93356.00
2019-01-23T15:16:22.504Z,93350.00
2019-01-23T15:19:05.032Z,93349.00
2019-01-23T15:21:54.555Z,93351.00
2019-01-23T15:24:36.981Z,93352.00
2019-01-23T15:27:26.560Z,93358.00
2019-01-23T15:30:08.981Z,93356.00
2019-01-23T15:32:59.290Z,93357.00
2019-01-23T15:35:41.633Z,93356.00
2019-01-23T15:41:32.510Z,93365.00
2019-01-23T15:44:14.341Z,93360.00
2019-01-23T15:47:03.897Z,93377.00
2019-01-23T15:49:46.369Z,93373.00
2019-01-23T15:52:35.877Z,93380.00
2019-01-23T15:55:19.979Z,93383.00
2019-01-23T15:58:09.629Z,93392.00
2019-01-23T16:07:05.027Z,93391.00
2019-01-23T16:10:08.998Z,93392.00
2019-01-23T16:12:38.877Z,93399.00
2019-01-23T16:15:21.503Z,93400.00
2019-01-23T16:18:11.045Z,93408.00
2019-01-23T16:21:00.559Z,93411.00
2019-01-23T16:23:43.232Z,93409.00
2019-01-23T16:26:32.803Z,93413.00
2019-01-23T16:29:15.519Z,93402.00
2019-01-23T16:32:05.197Z,93403.00
2019-01-23T16:34:47.801Z,93419.00
2019-01-23T16:37:30.425Z,93420.00
2019-01-23T16:40:30.727Z,93422.00
2019-01-23T16:43:20.374Z,93419.00
2019-01-23T16:46:02.769Z,93421.00
2019-01-23T16:52:19.673Z,93428.00
2019-01-23T16:55:09.473Z,93436.00
2019-01-23T16:58:00.165Z,93432.00
2019-01-23T17:00:42.650Z,93431.00
2019-01-23T17:06:26.100Z,93445.00
2019-01-23T17:12:23.769Z,93443.00
2019-01-23T17:18:15.415Z,93448.00
2019-01-23T17:20:57.616Z,93448.00
2019-01-23T17:23:47.176Z,93454.00
2019-01-23T17:26:29.360Z,93456.00
2019-01-23T17:29:18.882Z,93453.00
2019-01-23T17:32:00.801Z,93461.00
2019-01-23T17:37:58.876Z,93463.00
2019-01-23T17:43:57.691Z,93466.00
2019-01-23T17:46:41.599Z,93468.00
2019-01-23T17:49:50.129Z,93475.00
2019-01-23T17:52:32.161Z,93474.00
2019-01-23T17:56:05.453Z,93479.00
2019-01-23T17:58:47.191Z,93470.00
2019-01-23T18:01:37.084Z,93478.00
2019-01-23T18:04:18.872Z,93478.00
2019-01-23T18:07:08.442Z,93476.00
2019-01-23T18:09:51.566Z,93482.00
2019-01-23T18:15:47.412Z,93476.00
2019-01-23T18:18:36.985Z,93472.00
2019-01-23T18:21:18.790Z,93481.00
2019-01-23T18:24:27.732Z,93476.00
2019-01-23T18:27:10.232Z,93473.00
2019-01-23T18:32:48.976Z,93477.00
2019-01-23T18:36:14.804Z,93490.00
2019-01-23T18:39:42.518Z,93483.00
2019-01-23T18:42:28.656Z,93498.00
2019-01-23T18:45:56.309Z,93500.00
2019-01-23T18:48:57.428Z,93504.00
2019-01-23T18:52:10.094Z,93502.00
2019-01-23T18:54:52.090Z,93512.00
2019-01-23T18:57:41.752Z,93500.00
2019-01-23T19:00:24.249Z,93510.00
2019-01-23T19:06:22.905Z,93516.00
2019-01-23T19:09:23.461Z,93528.00
2019-01-23T19:12:13.613Z,93515.00
2019-01-23T19:14:57.546Z,93525.00
2019-01-23T19:17:47.085Z,93515.00
2019-01-23T19:20:36.922Z,93525.00
2019-01-23T19:23:26.613Z,93529.00
2019-01-23T19:26:08.470Z,93530.00
2019-01-23T19:28:58.298Z,93534.00
2019-01-23T19:31:40.435Z,93534.00
2019-01-23T19:34:30.356Z,93542.00
2019-01-23T19:37:13.151Z,93533.00
2019-01-23T19:46:13.100Z,93549.00
2019-01-23T19:49:02.742Z,93548.00
2019-01-23T19:51:44.810Z,93561.00
2019-01-23T19:57:27.858Z,93548.00
2019-01-23T20:00:36.524Z,93558.00
2019-01-23T20:03:26.252Z,93559.00
2019-01-23T20:06:15.851Z,93561.00
2019-01-23T20:08:58.829Z,93550.00
2019-01-23T20:11:48.550Z,93565.00
2019-01-23T20:14:31.900Z,93569.00
2019-01-23T20:18:01.316Z,93569.00
2019-01-23T20:20:45.321Z,93570.00
2019-01-23T20:23:34.921Z,93570.00
2019-01-23T20:26:26.541Z,93568.00
2019-01-23T20:29:16.671Z,93582.00
2019-01-23T20:32:00.719Z,93586.00
2019-01-23T20:37:52.710Z,93581.00
2019-01-23T20:40:35.223Z,93582.00
2019-01-23T20:43:25.012Z,93588.00
2019-01-23T20:46:11.557Z,93602.00
2019-01-23T20:49:01.112Z,93607.00
2019-01-23T20:51:43.258Z,93590.00
2019-01-23T20:54:33.194Z,93612.00
2019-01-23T20:57:15.143Z,93601.00
2019-01-23T21:03:26.043Z,93607.00
2019-01-23T21:06:08.976Z,93607.00
2019-01-23T21:08:58.664Z,93613.00
2019-01-23T21:11:41.984Z,93623.00
2019-01-23T21:14:31.516Z,93618.00
2019-01-23T21:17:13.945Z,93618.00
2019-01-23T21:20:22.403Z,93630.00
2019-01-23T21:23:04.811Z,93628.00
2019-01-23T21:25:54.352Z,93629.00
2019-01-23T21:28:36.690Z,93637.00
2019-01-23T21:31:26.202Z,93645.00
2019-01-23T21:34:08.205Z,93638.00
2019-01-23T21:36:57.727Z,93641.00
2019-01-23T21:39:40.171Z,93649.00
2019-01-23T21:42:29.833Z,93643.00
2019-01-23T21:45:12.531Z,93645.00
2019-01-23T21:48:02.541Z,93647.00
2019-01-23T21:50:52.378Z,93645.00
2019-01-23T21:53:35.207Z,93653.00
2019-01-23T21:56:43.672Z,93665.00
2019-01-23T21:59:26.035Z,93655.00
2019-01-23T22:05:54.429Z,93675.00
2019-01-23T22:08:36.255Z,93671.00
2019-01-23T22:11:25.842Z,93671.00
2019-01-23T22:14:08.482Z,93679.00
2019-01-23T22:16:58.012Z,93685.00
2019-01-23T22:19:40.270Z,93686.00
2019-01-23T22:25:37.581Z,93700.00
2019-01-23T22:28:27.144Z,93704.00
2019-01-23T22:31:09.060Z,93713.00
2019-01-23T22:37:06.824Z,93714.00
2019-01-23T22:39:56.370Z,93721.00
2019-01-23T22:46:01.232Z,93720.00
2019-01-23T22:48:43.670Z,93725.00
2019-01-23T22:51:33.211Z,93719.00
2019-01-23T22:54:15.143Z,93729.00
2019-01-23T22:57:04.706Z,93729.00
2019-01-23T22:59:47.179Z,93734.00
2019-01-23T23:02:36.729Z,93746.00
2019-01-23T23:05:19.126Z,93747.00
2019-01-23T23:08:08.893Z,93758.00
2019-01-23T23:10:58.441Z,93753.00
2019-01-23T23:13:47.963Z,93761.00
2019-01-23T23:16:30.324Z,93762.00
2019-01-23T23:19:19.943Z,93764.00
2019-01-23T23:22:02.427Z,93762.00
2019-01-23T23:24:52.087Z,93778.00
2019-01-23T23:27:39.391Z,93778.00
2019-01-23T23:33:33.056Z,93795.00
2019-01-23T23:36:20.807Z,93790.00
2019-01-23T23:47:49.119Z,93802.00
2019-01-23T23:50:30.956Z,93811.00
2019-01-23T23:56:29.026Z,93807.00
2019-01-23T23:59:11.109Z,93812.00
